Time;durP1;ratioP1;P1;durP2;ratioP2;P2;SDS_P1;SDS_P2;PMS_P1;PMS_P2;Temp;Humidity;BMP_temperature;BMP_pressure;BME280_temperature;BME280_humidity;BME280_pressure;Samples;Min_cycle;Max_cycle;Signal;HPM_P1;HPM_P2
2022/08/25 00:02:14;;;;;;;8.25;6.95;;;;;;;15.87;nan;101441.72;4928393;29;20405;-76
2022/08/25 00:04:41;;;;;;;8.73;6.07;;;;;;;15.85;nan;101434.69;4931318;29;20036;-78
2022/08/25 00:07:08;;;;;;;8.20;6.60;;;;;;;15.80;nan;101433.94;4916009;29;20393;-77
2022/08/25 00:09:35;;;;;;;6.72;6.07;;;;;;;15.76;nan;101435.84;4932033;29;20043;-77
2022/08/25 00:12:03;;;;;;;6.95;6.18;;;;;;;15.74;nan;101438.56;4931335;29;20050;-77
2022/08/25 00:14:35;;;;;;;7.85;6.45;;;;;;;15.73;nan;101433.28;4930068;29;20047;-77
2022/08/25 00:17:27;;;;;;;6.75;6.03;;;;;;;15.76;nan;101428.72;4930840;29;20042;-77
2022/08/25 00:19:54;;;;;;;7.28;6.25;;;;;;;15.71;nan;101432.41;4917441;29;20108;-79
2022/08/25 00:22:22;;;;;;;7.55;5.95;;;;;;;15.67;nan;101421.00;4887733;29;20104;-79
2022/08/25 00:24:48;;;;;;;10.07;6.47;;;;;;;15.66;nan;101429.91;4905124;29;20099;-79
2022/08/25 00:27:16;;;;;;;8.00;6.13;;;;;;;15.65;nan;101421.97;4899455;29;20147;-79
2022/08/25 00:29:43;;;;;;;9.63;6.53;;;;;;;15.63;nan;101421.13;4900375;29;20104;-79
2022/08/25 00:32:11;;;;;;;10.13;6.07;;;;;;;15.61;nan;101426.50;4904136;29;20119;-79
2022/08/25 00:34:38;;;;;;;8.13;6.45;;;;;;;15.58;nan;101423.91;4897547;29;20120;-79
2022/08/25 00:37:08;;;;;;;6.60;5.90;;;;;;;15.56;nan;101419.53;4887608;29;20283;-78
2022/08/25 00:39:35;;;;;;;7.28;6.47;;;;;;;15.56;nan;101423.06;4914070;29;20128;-79
2022/08/25 00:42:03;;;;;;;9.80;6.57;;;;;;;15.57;nan;101429.28;4911064;29;20510;-78
2022/08/25 00:44:32;;;;;;;6.40;5.68;;;;;;;15.57;nan;101427.47;4900206;29;20067;-79
2022/08/25 00:47:00;;;;;;;7.28;6.15;;;;;;;15.59;nan;101430.97;4912076;29;20039;-78
2022/08/25 00:49:44;;;;;;;7.78;6.95;;;;;;;15.68;nan;101422.75;4911521;29;20041;-78
2022/08/25 00:52:15;;;;;;;7.50;6.45;;;;;;;15.72;nan;101424.41;4907413;29;20033;-79
2022/08/25 00:54:49;;;;;;;8.57;6.93;;;;;;;15.77;nan;101421.59;4895999;29;20056;-80
2022/08/25 00:57:17;;;;;;;;;;;;;;;15.85;nan;101424.91;4895707;29;20181;-79
2022/08/25 00:59:44;;;;;;;9.82;6.80;;;;;;;15.93;nan;101416.69;4894873;29;19930;-79
2022/08/25 01:02:14;;;;;;;7.97;7.18;;;;;;;15.99;nan;101416.50;4911965;29;20500;-78
2022/08/25 01:04:42;;;;;;;9.77;6.93;;;;;;;16.01;nan;101418.19;4881290;29;20048;-79
2022/08/25 01:07:16;;;;;;;7.78;6.97;;;;;;;16.07;nan;101421.59;4896699;29;20039;-78
2022/08/25 01:09:45;;;;;;;8.35;7.00;;;;;;;16.16;nan;101410.63;4900816;29;20036;-80
2022/08/25 01:12:12;;;;;;;10.20;7.72;;;;;;;16.21;nan;101414.88;4900397;29;20409;-78
2022/08/25 01:14:39;;;;;;;10.27;8.30;;;;;;;16.25;nan;101415.69;4897257;29;20045;-79
2022/08/25 01:17:06;;;;;;;11.93;9.05;;;;;;;16.36;nan;101420.66;4899940;29;20066;-78
2022/08/25 01:19:33;;;;;;;20.33;13.20;;;;;;;16.56;nan;101416.44;4901911;29;20039;-78
2022/08/25 01:22:00;;;;;;;18.88;13.18;;;;;;;16.74;nan;101420.31;4899807;29;20107;-77
2022/08/25 01:24:36;;;;;;;24.25;16.10;;;;;;;16.77;nan;101416.66;4912949;29;20552;-79
2022/08/25 01:27:04;;;;;;;16.75;12.43;;;;;;;16.76;nan;101415.78;4913719;29;20032;-78
2022/08/25 01:29:31;;;;;;;18.65;12.85;;;;;;;16.78;nan;101415.72;4916473;29;20047;-78
2022/08/25 01:32:00;;;;;;;19.23;13.07;;;;;;;16.80;nan;101413.88;4897188;29;20047;-78
2022/08/25 01:34:30;;;;;;;20.27;13.52;;;;;;;16.83;nan;101414.66;4898126;29;20043;-78
2022/08/25 01:36:58;;;;;;;24.77;16.48;;;;;;;16.92;nan;101407.25;4898257;29;20036;-77
2022/08/25 01:39:26;;;;;;;25.58;14.35;;;;;;;16.97;nan;101413.28;4900706;29;20115;-78
2022/08/25 01:42:05;;;;;;;19.08;12.85;;;;;;;16.98;nan;101412.34;4897205;29;20043;-78
2022/08/25 01:44:34;;;;;;;28.90;17.50;;;;;;;17.07;nan;101410.25;4895805;29;20504;-78
2022/08/25 01:47:02;;;;;;;25.42;17.08;;;;;;;17.12;nan;101412.75;4880768;29;20672;-78
2022/08/25 01:49:29;;;;;;;25.02;15.75;;;;;;;17.13;nan;101407.34;4895958;29;20058;-79
2022/08/25 01:52:16;;;;;;;20.65;14.48;;;;;;;17.13;nan;101409.16;4913636;29;20043;-78
2022/08/25 01:54:43;;;;;;;28.10;16.45;;;;;;;17.15;nan;101409.97;4897708;29;20032;-80
2022/08/25 01:57:10;;;;;;;24.77;18.10;;;;;;;17.23;nan;101404.34;4913426;29;20092;-79
2022/08/25 01:59:37;;;;;;;25.35;17.52;;;;;;;17.30;nan;101413.88;4900304;29;20733;-80
2022/08/25 02:02:04;;;;;;;32.65;18.90;;;;;;;17.32;nan;101412.03;4898877;29;20111;-79
2022/08/25 02:04:32;;;;;;;33.13;20.80;;;;;;;17.37;nan;101415.41;4900232;29;20092;-79
2022/08/25 02:07:01;;;;;;;29.63;18.35;;;;;;;17.37;nan;101407.41;4914962;29;20043;-80
2022/08/25 02:09:28;;;;;;;30.27;19.30;;;;;;;17.42;nan;101408.97;4905876;29;20119;-79
2022/08/25 02:11:55;;;;;;;29.38;18.48;;;;;;;17.42;nan;101403.63;4900646;29;20120;-79
2022/08/25 02:14:22;;;;;;;30.30;19.95;;;;;;;17.45;nan;101408.84;4925223;29;20115;-79
2022/08/25 02:16:52;;;;;;;31.73;19.25;;;;;;;17.45;nan;101405.31;4901550;29;20131;-79
2022/08/25 02:19:20;;;;;;;29.75;18.95;;;;;;;17.52;nan;101396.16;4919004;29;20132;-79
2022/08/25 02:21:47;;;;;;;34.60;21.38;;;;;;;17.55;nan;101400.50;4886031;29;20108;-79
2022/08/25 02:24:15;;;;;;;33.60;19.83;;;;;;;17.60;nan;101398.53;4913943;29;20465;-79
2022/08/25 02:26:43;;;;;;;31.00;19.00;;;;;;;17.60;nan;101398.53;4903437;29;20108;-80
2022/08/25 02:29:09;;;;;;;28.08;17.98;;;;;;;17.56;nan;101400.44;4887283;29;20097;-79
2022/08/25 02:31:38;;;;;;;31.98;19.13;;;;;;;17.63;nan;101398.41;4920149;29;20116;-80
2022/08/25 02:34:06;;;;;;;31.05;18.85;;;;;;;17.63;nan;101399.28;4905072;29;20116;-80
2022/08/25 02:36:34;;;;;;;29.90;18.90;;;;;;;17.63;nan;101393.94;4895441;29;20089;-79
2022/08/25 02:39:03;;;;;;;27.60;18.40;;;;;;;17.69;nan;101390.16;4897800;29;20116;-79
2022/08/25 02:41:30;;;;;;;26.63;17.52;;;;;;;17.67;nan;101389.38;4900698;29;20139;-78
2022/08/25 02:43:59;;;;;;;27.75;17.48;;;;;;;17.64;nan;101390.31;4903966;29;20127;-79
2022/08/25 02:46:29;;;;;;;28.05;18.90;;;;;;;17.65;nan;101389.41;4916839;29;20128;-79
2022/08/25 02:48:57;;;;;;;32.20;20.73;;;;;;;17.65;nan;101384.03;4893493;29;20129;-80
2022/08/25 02:51:27;;;;;;;26.95;17.63;;;;;;;17.67;nan;101387.56;4901109;29;20772;-79
2022/08/25 02:53:56;;;;;;;28.92;18.35;;;;;;;17.70;nan;101384.78;4900240;29;20104;-79
2022/08/25 02:56:24;;;;;;;27.02;18.75;;;;;;;17.69;nan;101388.38;4905127;29;20107;-79
2022/08/25 02:58:51;;;;;;;26.83;17.42;;;;;;;17.68;nan;101380.41;4908469;29;20148;-77
2022/08/25 03:01:19;;;;;;;27.15;18.25;;;;;;;17.69;nan;101376.81;4920901;29;20117;-77
2022/08/25 03:03:47;;;;;;;28.10;18.05;;;;;;;17.70;nan;101378.56;4905681;29;20116;-79
2022/08/25 03:06:17;;;;;;;30.38;18.45;;;;;;;17.69;nan;101380.34;4919889;29;20100;-80
2022/08/25 03:08:44;;;;;;;28.95;18.63;;;;;;;17.82;nan;101375.41;4907286;29;20100;-79
2022/08/25 03:11:11;;;;;;;24.48;16.92;;;;;;;17.81;nan;101368.31;4922110;29;20088;-80
2022/08/25 03:13:38;;;;;;;27.63;17.48;;;;;;;17.78;nan;101379.16;4906706;29;20120;-78
2022/08/25 03:16:06;;;;;;;21.52;16.25;;;;;;;17.76;nan;101375.69;4905410;29;20133;-79
2022/08/25 03:18:38;;;;;;;22.38;16.48;;;;;;;17.72;nan;101366.88;4922308;29;20100;-79
2022/08/25 03:21:05;;;;;;;22.33;15.20;;;;;;;17.69;nan;101374.13;4906901;29;20128;-78
2022/08/25 03:23:33;;;;;;;23.90;16.55;;;;;;;17.70;nan;101370.56;4908020;29;20112;-79
2022/08/25 03:28:45;;;;;;;24.73;17.85;;;;;;;17.72;nan;101369.56;4906827;29;20119;-80
2022/08/25 03:31:12;;;;;;;26.98;16.83;;;;;;;17.72;nan;101360.66;4900910;29;20116;-79
2022/08/25 03:33:39;;;;;;;27.00;17.20;;;;;;;17.69;nan;101361.63;4916038;29;20101;-78
2022/08/25 03:36:07;;;;;;;23.38;17.40;;;;;;;17.76;nan;101364.97;4898566;29;20111;-77
2022/08/25 03:38:37;;;;;;;21.80;16.33;;;;;;;17.75;nan;101357.91;4891095;29;20104;-78
2022/08/25 03:41:13;;;;;;;24.25;16.92;;;;;;;17.71;nan;101366.94;4904162;29;20042;-78
2022/08/25 03:43:41;;;;;;;25.20;16.13;;;;;;;17.69;nan;101366.97;4913605;29;20039;-79
2022/08/25 03:46:08;;;;;;;25.65;16.65;;;;;;;17.70;nan;101360.75;4908670;29;20047;-78
2022/08/25 03:48:35;;;;;;;28.60;17.98;;;;;;;17.76;nan;101366.78;4894052;29;20040;-78
2022/08/25 03:51:02;;;;;;;25.85;16.95;;;;;;;17.72;nan;101371.34;4894286;29;20045;-79
2022/08/25 03:53:29;;;;;;;27.25;18.10;;;;;;;17.73;nan;101362.41;4897320;29;20435;-78
2022/08/25 03:55:56;;;;;;;25.45;17.67;;;;;;;17.70;nan;101366.09;4894562;29;20048;-79
2022/08/25 03:58:23;;;;;;;27.95;18.40;;;;;;;17.76;nan;101364.97;4909537;29;20043;-79
2022/08/25 04:00:50;;;;;;;28.75;19.33;;;;;;;17.73;nan;101363.28;4892511;29;20730;-78
2022/08/25 04:03:17;;;;;;;26.50;18.50;;;;;;;17.78;nan;101352.41;4896640;29;20409;-79
2022/08/25 04:05:46;;;;;;;26.52;17.98;;;;;;;17.84;nan;101362.00;4908055;29;20051;-79
2022/08/25 04:08:13;;;;;;;29.25;18.90;;;;;;;17.79;nan;101364.84;4895768;29;20375;-79
2022/08/25 04:10:40;;;;;;;27.88;19.13;;;;;;;17.85;nan;101366.41;4891175;29;20524;-79
2022/08/25 04:13:07;;;;;;;28.08;17.63;;;;;;;17.87;nan;101373.44;4906759;29;20040;-79
2022/08/25 04:15:41;;;;;;;28.35;18.35;;;;;;;17.83;nan;101377.19;4891483;29;20494;-78
2022/08/25 04:18:11;;;;;;;28.90;19.25;;;;;;;17.82;nan;101366.53;4892555;29;20041;-79
2022/08/25 04:21:01;;;;;;;29.77;18.33;;;;;;;17.81;nan;101370.13;4891770;29;20553;-78
2022/08/25 04:23:31;;;;;;;33.83;20.63;;;;;;;17.81;nan;101365.66;4907255;29;20047;-79
2022/08/25 04:25:58;;;;;;;30.10;19.10;;;;;;;17.82;nan;101374.53;4908656;29;20046;-78
2022/08/25 04:28:25;;;;;;;33.28;19.98;;;;;;;17.83;nan;101373.63;4911539;29;20036;-78
2022/08/25 04:30:52;;;;;;;32.50;20.13;;;;;;;17.86;nan;101373.50;4909663;29;20052;-78
2022/08/25 04:33:19;;;;;;;30.08;20.42;;;;;;;17.89;nan;101382.25;4910465;29;20618;-79
2022/08/25 04:35:49;;;;;;;33.45;21.25;;;;;;;17.93;nan;101383.03;4907512;29;20048;-78
2022/08/25 04:38:16;;;;;;;32.47;20.52;;;;;;;17.90;nan;101377.78;4895819;29;20046;-80
2022/08/25 04:40:43;;;;;;;33.90;19.92;;;;;;;17.99;nan;101374.75;4895975;29;20052;-78
2022/08/25 04:43:10;;;;;;;30.60;19.67;;;;;;;18.02;nan;101374.66;4911388;29;20040;-79
2022/08/25 04:45:38;;;;;;;28.65;21.02;;;;;;;17.98;nan;101381.91;4895292;29;20040;-79
2022/08/25 04:48:05;;;;;;;29.80;19.60;;;;;;;18.00;nan;101376.50;4892175;29;20041;-79
2022/08/25 04:50:32;;;;;;;30.10;18.73;;;;;;;17.99;nan;101390.78;4903327;29;20066;-79
2022/08/25 04:53:00;;;;;;;27.58;18.73;;;;;;;18.00;nan;101380.06;4897649;29;20049;-79
2022/08/25 04:55:27;;;;;;;32.95;20.88;;;;;;;18.00;nan;101384.53;4897576;29;20729;-79
2022/08/25 04:57:55;;;;;;;32.83;19.92;;;;;;;17.99;nan;101377.41;4895171;29;20052;-79
2022/08/25 05:00:21;;;;;;;29.40;19.65;;;;;;;17.95;nan;101374.00;4895288;29;20048;-79
2022/08/25 05:02:49;;;;;;;30.63;19.85;;;;;;;18.00;nan;101366.69;4911416;29;20063;-80
2022/08/25 05:05:16;;;;;;;32.55;19.77;;;;;;;18.03;nan;101368.38;4909337;29;20490;-79
2022/08/25 05:07:42;;;;;;;29.88;20.13;;;;;;;18.03;nan;101370.16;4910254;29;20047;-80
2022/08/25 05:10:10;;;;;;;31.60;19.35;;;;;;;18.02;nan;101379.13;4911008;29;20037;-78
2022/08/25 05:12:37;;;;;;;36.08;22.35;;;;;;;18.05;nan;101376.31;4894734;29;20033;-79
2022/08/25 05:15:49;;;;;;;31.00;19.27;;;;;;;18.11;nan;101373.41;4911449;29;20047;-79
2022/08/25 05:17:51;;;;;;;30.52;20.48;;;;;;;18.11;nan;101365.38;4908053;29;20037;-79
2022/08/25 05:20:22;;;;;;;27.55;19.75;;;;;;;18.06;nan;101368.22;4910721;29;20065;-79
2022/08/25 05:22:49;;;;;;;30.92;19.38;;;;;;;18.06;nan;101372.69;4908426;29;20050;-79
2022/08/25 05:25:16;;;;;;;32.40;19.52;;;;;;;18.07;nan;101372.63;4895254;29;20067;-79
2022/08/25 05:27:43;;;;;;;27.65;18.85;;;;;;;18.12;nan;101375.13;4909611;29;20051;-79
2022/08/25 05:30:10;;;;;;;28.80;19.25;;;;;;;18.13;nan;101371.53;4911041;29;20045;-79
2022/08/25 05:32:37;;;;;;;26.17;18.40;;;;;;;18.09;nan;101373.47;4878976;29;20048;-79
2022/08/25 05:35:06;;;;;;;28.70;19.33;;;;;;;18.18;nan;101377.56;4894183;29;20044;-79
2022/08/25 05:37:33;;;;;;;26.92;18.83;;;;;;;18.14;nan;101378.63;4908347;29;20040;-79
2022/08/25 05:39:59;;;;;;;27.15;17.48;;;;;;;18.09;nan;101380.63;4907381;29;20453;-78
2022/08/25 05:42:27;;;;;;;28.25;19.40;;;;;;;18.06;nan;101380.72;4893384;29;20040;-78
2022/08/25 05:44:54;;;;;;;26.13;18.85;;;;;;;18.05;nan;101379.84;4895335;29;20040;-79
2022/08/25 05:47:21;;;;;;;26.23;19.35;;;;;;;18.12;nan;101381.34;4876505;29;20052;-79
2022/08/25 05:49:48;;;;;;;28.90;18.13;;;;;;;18.11;nan;101386.78;4895056;29;20048;-79
2022/08/25 05:52:15;;;;;;;31.65;18.90;;;;;;;18.09;nan;101381.50;4893232;29;20083;-78
2022/08/25 05:54:44;;;;;;;33.30;20.30;;;;;;;18.16;nan;101387.44;4910067;29;20044;-79
2022/08/25 05:57:10;;;;;;;31.23;20.38;;;;;;;18.19;nan;101387.34;4905244;29;20033;-79
2022/08/25 05:59:37;;;;;;;29.30;19.63;;;;;;;18.19;nan;101387.34;4894468;29;20044;-80
2022/08/25 06:04:50;;;;;;;33.53;21.90;;;;;;;18.28;nan;101387.81;4903379;29;20051;-79
2022/08/25 06:07:17;;;;;;;34.47;21.95;;;;;;;18.33;nan;101389.44;4907757;29;20051;-78
2022/08/25 06:09:47;;;;;;;32.25;22.17;;;;;;;18.38;nan;101392.78;4895263;29;20036;-78
2022/08/25 06:12:14;;;;;;;32.47;22.15;;;;;;;18.43;nan;101397.03;4893218;29;20046;-78
2022/08/25 06:14:41;;;;;;;31.38;20.10;;;;;;;18.39;nan;101400.75;4909344;29;20055;-78
2022/08/25 06:17:09;;;;;;;31.63;20.48;;;;;;;18.39;nan;101394.53;4891772;29;20490;-78
2022/08/25 06:19:36;;;;;;;33.88;20.63;;;;;;;18.42;nan;101395.31;4879099;29;20045;-79
2022/08/25 06:22:03;;;;;;;33.20;21.25;;;;;;;18.47;nan;101403.13;4907832;29;20052;-78
2022/08/25 06:24:31;;;;;;;37.08;21.73;;;;;;;18.48;nan;101397.69;4893206;29;20044;-79
2022/08/25 06:26:59;;;;;;;37.15;21.90;;;;;;;18.49;nan;101396.75;4892649;29;20041;-78
2022/08/25 06:29:26;;;;;;;38.25;23.35;;;;;;;18.58;nan;101400.84;4893656;29;20051;-78
2022/08/25 06:31:53;;;;;;;35.85;22.80;;;;;;;18.56;nan;101398.25;4977341;23;20058;-78
2022/08/25 06:34:20;;;;;;;35.17;21.13;;;;;;;18.60;nan;101398.13;4910091;29;20047;-78
2022/08/25 06:36:49;;;;;;;38.95;23.40;;;;;;;18.71;nan;101395.91;4929511;29;20047;-77
2022/08/25 06:39:16;;;;;;;36.42;23.20;;;;;;;18.68;nan;101398.72;4918464;29;20043;-77
2022/08/25 06:41:43;;;;;;;39.55;24.17;;;;;;;18.74;nan;101393.94;4915960;29;20046;-77
2022/08/25 06:44:11;;;;;;;44.58;25.08;;;;;;;18.81;nan;101397.25;4895589;29;20428;-78
2022/08/25 06:46:38;;;;;;;36.00;24.65;;;;;;;18.84;nan;101392.66;4915765;29;20557;-77
2022/08/25 06:49:05;;;;;;;39.17;24.13;;;;;;;18.91;nan;101395.03;4915603;29;20052;-78
2022/08/25 06:51:34;;;;;;;37.00;23.33;;;;;;;18.89;nan;101394.25;4915364;29;20412;-78
2022/08/25 06:54:01;;;;;;;38.78;23.52;;;;;;;18.90;nan;101402.19;4917295;29;20036;-77
2022/08/25 06:56:28;;;;;;;42.92;24.90;;;;;;;18.94;nan;101408.31;4914066;29;20106;-78
2022/08/25 06:58:55;;;;;;;37.05;24.25;;;;;;;18.98;nan;101400.06;4916501;29;20040;-78
2022/08/25 07:01:25;;;;;;;36.38;23.35;;;;;;;19.03;nan;101406.09;4913821;29;20043;-79
2022/08/25 07:03:56;;;;;;;38.63;24.75;;;;;;;19.01;nan;101407.13;4917734;29;20050;-78
2022/08/25 07:06:25;;;;;;;41.83;25.08;;;;;;;19.00;nan;101408.91;4913770;29;20039;-78
2022/08/25 07:08:52;;;;;;;40.15;24.85;;;;;;;19.04;nan;101402.47;4912341;29;20052;-78
2022/08/25 07:11:20;;;;;;;42.10;25.77;;;;;;;19.10;nan;101396.88;4897933;29;20052;-78
2022/08/25 07:13:47;;;;;;;43.72;26.13;;;;;;;19.25;nan;101397.09;4902379;29;20048;-78
2022/08/25 07:16:15;;;;;;;41.10;24.70;;;;;;;19.36;nan;101400.19;4908991;29;20063;-78
2022/08/25 07:18:43;;;;;;;43.53;24.13;;;;;;;19.44;nan;101399.84;4907451;29;20483;-78
2022/08/25 07:21:11;;;;;;;46.80;26.65;;;;;;;19.44;nan;101399.84;4905159;29;20040;-78
2022/08/25 07:23:39;;;;;;;39.38;24.00;;;;;;;19.46;nan;101398.81;4915473;29;20036;-78
2022/08/25 07:26:12;;;;;;;43.97;24.40;;;;;;;19.55;nan;101387.66;4906316;29;20382;-78
2022/08/25 07:28:59;;;;;;;41.60;24.33;;;;;;;19.60;nan;101388.38;4898441;29;20442;-78
2022/08/25 07:31:26;;;;;;;47.92;26.05;;;;;;;19.64;nan;101389.97;4910645;29;20040;-78
2022/08/25 07:36:41;;;;;;;43.55;26.08;;;;;;;19.77;nan;101392.09;4913936;29;20043;-77
2022/08/25 07:39:08;;;;;;;37.80;24.00;;;;;;;19.90;nan;101391.41;4908629;29;20408;-78
2022/08/25 07:41:38;;;;;;;37.55;24.90;;;;;;;19.88;nan;101387.94;4910066;29;20054;-78
2022/08/25 07:44:05;;;;;;;45.83;26.00;;;;;;;19.84;nan;101383.69;4910460;29;20037;-78
2022/08/25 07:46:32;;;;;;;39.70;24.70;;;;;;;19.96;nan;101371.47;4913199;29;20401;-78
2022/08/25 07:49:00;;;;;;;42.75;24.60;;;;;;;20.01;nan;101374.81;4904774;29;20047;-78
2022/08/25 07:51:27;;;;;;;45.47;26.75;;;;;;;20.01;nan;101380.19;4910147;29;20125;-78
2022/08/25 07:53:54;;;;;;;46.63;27.10;;;;;;;20.01;nan;101380.19;4914821;29;20497;-78
2022/08/25 07:56:21;;;;;;;42.40;25.02;;;;;;;20.03;nan;101388.16;4914762;29;20047;-79
2022/08/25 07:58:48;;;;;;;45.70;27.33;;;;;;;19.99;nan;101387.41;4910024;29;20044;-78
2022/08/25 08:01:17;;;;;;;47.13;26.42;;;;;;;20.04;nan;101393.44;4913444;29;20046;-78
2022/08/25 08:03:45;;;;;;;49.63;27.02;;;;;;;20.13;nan;101386.75;4909821;29;20046;-77
2022/08/25 08:06:20;;;;;;;44.20;26.10;;;;;;;20.22;nan;101386.31;4907730;29;20709;-78
2022/08/25 08:08:48;;;;;;;44.60;26.45;;;;;;;20.27;nan;101380.72;4899307;29;20048;-78
2022/08/25 08:11:17;;;;;;;49.85;29.42;;;;;;;20.23;nan;101388.03;4913281;29;20079;-78
2022/08/25 08:13:45;;;;;;;44.72;26.02;;;;;;;20.31;nan;101382.31;4900187;29;20192;-77
2022/08/25 08:16:13;;;;;;;47.28;27.55;;;;;;;20.46;nan;101384.25;4912446;29;20520;-78
2022/08/25 08:18:42;;;;;;;49.70;29.27;;;;;;;20.41;nan;101387.13;4906406;29;20502;-77
2022/08/25 08:21:15;;;;;;;53.13;29.77;;;;;;;20.45;nan;101382.53;4907382;29;20044;-77
2022/08/25 08:23:47;;;;;;;55.70;29.92;;;;;;;20.45;nan;101378.03;4906977;29;20047;-78
2022/08/25 08:26:14;;;;;;;58.47;30.50;;;;;;;20.55;nan;101386.47;4894605;29;20057;-77
2022/08/25 08:28:41;;;;;;;62.17;32.97;;;;;;;20.61;nan;101382.63;4897139;29;20047;-78
2022/08/25 08:31:08;;;;;;;52.00;30.10;;;;;;;20.64;nan;101379.78;4897892;29;20052;-78
2022/08/25 08:33:37;;;;;;;59.28;33.38;;;;;;;20.77;nan;101383.59;4913243;29;20105;-78
2022/08/25 08:36:10;;;;;;;66.10;33.72;;;;;;;20.83;nan;101372.50;4911865;29;20040;-79
2022/08/25 08:38:39;;;;;;;61.65;33.47;;;;;;;20.83;nan;101367.13;4911783;29;20666;-78
2022/08/25 08:44:40;;;;;;;59.08;33.05;;;;;;;20.89;nan;101369.50;4910511;29;20040;-78
2022/08/25 08:47:29;;;;;;;60.67;34.28;;;;;;;21.01;nan;101367.97;4908820;29;20044;-78
2022/08/25 08:50:10;;;;;;;60.03;32.00;;;;;;;21.03;nan;101358.06;4915105;29;20044;-77
2022/08/25 08:52:47;;;;;;;63.90;34.28;;;;;;;21.01;nan;101360.78;4897061;29;20055;-78
2022/08/25 08:55:35;;;;;;;55.22;31.48;;;;;;;21.06;nan;101357.88;4913946;29;20050;-78
2022/08/25 08:58:08;;;;;;;59.97;34.60;;;;;;;21.19;nan;101356.28;4913470;29;20039;-78
2022/08/25 09:00:43;;;;;;;61.40;35.10;;;;;;;21.30;nan;101353.03;4907337;29;20068;-78
2022/08/25 09:03:37;;;;;;;61.03;34.28;;;;;;;21.28;nan;101357.63;4895603;29;20044;-78
2022/08/25 09:06:10;;;;;;;59.30;34.30;;;;;;;21.37;nan;101354.44;4912994;29;20040;-78
2022/08/25 09:08:42;;;;;;;53.85;33.38;;;;;;;21.40;nan;101348.03;4914187;29;20512;-79
2022/08/25 09:11:20;;;;;;;56.33;30.98;;;;;;;21.40;nan;101342.66;4890383;29;20040;-79
2022/08/25 09:14:11;;;;;;;56.88;31.17;;;;;;;21.48;nan;101349.34;4914613;29;20061;-79
2022/08/25 09:16:55;;;;;;;54.75;29.92;;;;;;;21.73;nan;101351.53;4886933;29;20064;-79
2022/08/25 09:19:39;;;;;;;72.63;31.38;;;;;;;21.97;nan;101351.13;4891559;29;20044;-78
2022/08/25 09:22:26;;;;;;;45.45;26.50;;;;;;;22.04;nan;101349.81;4907962;29;20036;-79
2022/08/25 09:25:10;;;;;;;43.22;25.85;;;;;;;22.09;nan;101345.91;4915486;29;20048;-78
2022/08/25 09:27:56;;;;;;;46.15;28.48;;;;;;;22.16;nan;101341.91;4916779;29;20049;-78
2022/08/25 09:30:23;;;;;;;49.58;29.00;;;;;;;22.27;nan;101343.97;4895824;29;20399;-79
2022/08/25 09:33:00;;;;;;;43.25;27.77;;;;;;;22.11;nan;101341.34;4927640;29;20051;-78
2022/08/25 09:35:30;;;;;;;46.30;26.48;;;;;;;22.21;nan;101340.78;4908230;29;20044;-78
2022/08/25 09:38:06;;;;;;;46.80;25.98;;;;;;;22.31;nan;101333.91;4898717;29;20047;-78
2022/08/25 09:40:44;;;;;;;42.60;28.25;;;;;;;22.29;nan;101341.22;4913385;29;20548;-77
2022/08/25 09:43:30;;;;;;;43.08;25.70;;;;;;;22.48;nan;101336.47;4915038;29;20401;-79
2022/08/25 09:46:10;;;;;;;48.10;29.55;;;;;;;22.61;nan;101337.47;4912878;29;20119;-79
2022/08/25 09:48:49;;;;;;;50.30;29.98;;;;;;;22.70;nan;101330.66;4908890;29;20047;-79
2022/08/25 09:51:26;;;;;;;45.65;26.02;;;;;;;22.93;nan;101340.94;4909207;29;20032;-78
2022/08/25 09:53:59;;;;;;;30.85;20.77;;;;;;;22.96;nan;101329.97;4898391;29;20043;-79
2022/08/25 09:56:30;;;;;;;32.47;21.70;;;;;;;23.03;nan;101334.00;4912419;29;20413;-78
2022/08/25 09:59:33;;;;;;;22.88;17.23;;;;;;;23.11;nan;101327.28;4914296;29;20040;-79
2022/08/25 10:02:22;;;;;;;20.70;15.98;;;;;;;23.41;nan;101322.66;4905539;29;20591;-79
2022/08/25 10:04:53;;;;;;;31.38;21.08;;;;;;;23.72;nan;101316.22;4914007;29;20055;-79
2022/08/25 10:07:25;;;;;;;28.05;19.42;;;;;;;23.73;nan;101317.06;4912942;29;20518;-78
2022/08/25 10:10:02;;;;;;;28.30;18.58;;;;;;;23.59;nan;101315.22;4914032;29;20430;-78
2022/08/25 10:12:39;;;;;;;22.38;15.32;;;;;;;23.70;nan;101311.84;4894079;29;20032;-78
2022/08/25 10:15:20;;;;;;;17.85;14.35;;;;;;;23.75;nan;101318.69;4898482;29;20044;-79
2022/08/25 10:18:16;;;;;;;13.63;10.52;;;;;;;23.95;nan;101308.41;4907194;29;20052;-79
2022/08/25 10:20:43;;;;;;;18.63;11.13;;;;;;;24.08;nan;101310.22;4896471;29;20494;-78
2022/08/25 10:23:13;;;;;;;11.63;9.57;;;;;;;23.93;nan;101302.25;4912754;29;20039;-79
2022/08/25 10:25:44;;;;;;;12.27;9.55;;;;;;;23.79;nan;101305.84;4888947;29;20091;-79
2022/08/25 10:28:46;;;;;;;14.00;9.38;;;;;;;23.74;nan;101303.47;4926864;29;20048;-79
2022/08/25 10:31:21;;;;;;;9.90;8.68;;;;;;;23.80;nan;101300.38;4926038;29;20041;-78
2022/08/25 10:34:01;;;;;;;12.38;9.18;;;;;;;23.98;nan;101294.75;4931808;29;20432;-79
2022/08/25 10:36:46;;;;;;;11.45;8.75;;;;;;;23.90;nan;101294.38;4914368;29;20502;-79
2022/08/25 10:39:34;;;;;;;9.65;8.43;;;;;;;23.77;nan;101291.59;4913218;29;20046;-79
2022/08/25 10:42:19;;;;;;;7.88;7.03;;;;;;;23.88;nan;101289.09;4913517;29;20044;-78
2022/08/25 10:48:30;;;;;;;9.57;8.07;;;;;;;24.70;nan;101278.06;4912524;29;20055;-78
2022/08/25 10:51:02;;;;;;;9.32;7.75;;;;;;;25.31;nan;101281.00;4912706;29;20044;-79
2022/08/25 10:53:52;;;;;;;14.70;7.40;;;;;;;25.98;nan;101288.69;4910919;29;20036;-78
2022/08/25 10:56:23;;;;;;;9.77;7.40;;;;;;;25.88;nan;101279.53;4880070;29;20076;-79
2022/08/25 10:59:12;;;;;;;8.65;7.20;;;;;;;26.06;nan;101279.06;4895949;29;20037;-78
2022/08/25 11:01:45;;;;;;;8.10;7.30;;;;;;;26.18;nan;101273.66;4881697;29;20047;-78
2022/08/25 11:04:24;;;;;;;9.35;8.02;;;;;;;26.42;nan;101269.13;4908691;29;20044;-79
2022/08/25 11:07:02;;;;;;;9.57;7.82;;;;;;;26.34;nan;101264.25;4907258;29;20040;-79
2022/08/25 11:09:33;;;;;;;8.35;7.38;;;;;;;26.29;nan;101260.16;4915184;29;20062;-79
2022/08/25 11:12:12;;;;;;;11.77;7.30;;;;;;;26.32;nan;101262.66;4914123;29;20036;-79
2022/08/25 11:14:46;;;;;;;7.90;7.10;;;;;;;25.88;nan;101255.19;4914381;29;20515;-79
2022/08/25 11:17:22;;;;;;;9.18;7.90;;;;;;;25.99;nan;101253.41;4912580;29;20091;-79
2022/08/25 11:19:54;;;;;;;10.77;7.95;;;;;;;25.98;nan;101243.56;4912549;29;20589;-78
2022/08/25 11:22:47;;;;;;;8.30;7.22;;;;;;;26.16;nan;101249.41;4937295;29;20036;-79
2022/08/25 11:25:28;;;;;;;8.85;7.95;;;;;;;26.30;nan;101243.78;4937726;29;20031;-79
2022/08/25 11:28:04;;;;;;;8.30;7.10;;;;;;;26.27;nan;101246.75;4901038;29;20047;-79
2022/08/25 11:30:31;;;;;;;9.55;7.10;;;;;;;26.12;nan;101250.63;4917006;29;20028;-78
2022/08/25 11:32:59;;;;;;;13.82;8.15;;;;;;;25.88;nan;101236.22;4917158;29;20046;-78
2022/08/25 11:35:30;;;;;;;9.45;7.18;;;;;;;25.98;nan;101237.25;4906683;29;20696;-78
2022/08/25 11:38:13;;;;;;;11.80;8.35;;;;;;;26.43;nan;101241.03;4915879;29;20044;-78
2022/08/25 11:41:06;;;;;;;10.32;7.28;;;;;;;26.90;nan;101236.41;4919136;29;20569;-78
2022/08/25 11:44:19;;;;;;;10.05;7.47;;;;;;;26.77;nan;101227.53;4916807;29;20475;-78
2022/08/25 11:46:58;;;;;;;9.70;7.00;;;;;;;26.88;nan;101222.97;4917762;29;20052;-78
2022/08/25 11:49:27;;;;;;;9.75;7.35;;;;;;;27.14;nan;101214.63;4907503;29;20438;-79
2022/08/25 11:51:54;;;;;;;8.68;7.45;;;;;;;27.62;nan;101217.00;4913891;29;20070;-79
2022/08/25 11:54:38;;;;;;;10.68;7.35;;;;;;;27.91;nan;101218.16;4929866;29;20048;-79
2022/08/25 11:57:09;;;;;;;9.88;7.03;;;;;;;27.84;nan;101216.97;4918591;29;20120;-79
2022/08/25 11:59:48;;;;;;;24.20;8.85;;;;;;;27.88;nan;101217.56;4916336;29;20482;-80
2022/08/25 12:02:34;;;;;;;7.80;7.00;;;;;;;28.13;nan;101213.63;4912880;29;20111;-79
2022/08/25 12:05:21;;;;;;;10.25;7.53;;;;;;;28.46;nan;101208.03;4915133;29;20065;-79